sensor_id;sensor_type;location;lat;lon;timestamp;temperature;humidity
47813;DHT22;34221;45.296;9.516;2023-06-01T00:00:08;25.10;61.30
47813;DHT22;34221;45.296;9.516;2023-06-01T00:00:29;25.10;61.30
47813;DHT22;34221;45.296;9.516;2023-06-01T00:00:44;25.00;61.30
47813;DHT22;34221;45.296;9.516;2023-06-01T00:01:00;25.00;61.40
47813;DHT22;34221;45.296;9.516;2023-06-01T00:01:15;25.00;61.50
47813;DHT22;34221;45.296;9.516;2023-06-01T00:01:30;25.00;61.50
47813;DHT22;34221;45.296;9.516;2023-06-01T00:01:47;25.00;62.20
47813;DHT22;34221;45.296;9.516;2023-06-01T00:02:03;25.00;61.60
47813;DHT22;34221;45.296;9.516;2023-06-01T00:02:18;25.00;61.60
47813;DHT22;34221;45.296;9.516;2023-06-01T00:02:33;25.00;61.60
47813;DHT22;34221;45.296;9.516;2023-06-01T00:02:48;24.90;61.60
47813;DHT22;34221;45.296;9.516;2023-06-01T00:03:04;25.00;61.70
47813;DHT22;34221;45.296;9.516;2023-06-01T00:03:18;24.90;61.70
47813;DHT22;34221;45.296;9.516;2023-06-01T00:03:33;24.90;62.40
47813;DHT22;34221;45.296;9.516;2023-06-01T00:03:48;24.90;61.80
47813;DHT22;34221;45.296;9.516;2023-06-01T00:04:03;24.90;61.80
47813;DHT22;34221;45.296;9.516;2023-06-01T00:04:18;25.00;61.80
47813;DHT22;34221;45.296;9.516;2023-06-01T00:04:33;24.90;61.70
47813;DHT22;34221;45.296;9.516;2023-06-01T00:04:49;24.90;61.60
47813;DHT22;34221;45.296;9.516;2023-06-01T00:05:05;24.90;61.50
47813;DHT22;34221;45.296;9.516;2023-06-01T00:05:20;24.90;61.40
47813;DHT22;34221;45.296;9.516;2023-06-01T00:05:34;24.90;61.30
47813;DHT22;34221;45.296;9.516;2023-06-01T00:05:49;24.90;61.30
47813;DHT22;34221;45.296;9.516;2023-06-01T00:06:04;24.90;61.20
47813;DHT22;34221;45.296;9.516;2023-06-01T00:06:19;24.90;61.20
47813;DHT22;34221;45.296;9.516;2023-06-01T00:06:35;24.90;61.20
47813;DHT22;34221;45.296;9.516;2023-06-01T00:06:50;24.90;61.20
47813;DHT22;34221;45.296;9.516;2023-06-01T00:07:05;24.90;61.10
47813;DHT22;34221;45.296;9.516;2023-06-01T00:07:20;24.90;61.00
47813;DHT22;34221;45.296;9.516;2023-06-01T00:07:35;24.90;60.90
47813;DHT22;34221;45.296;9.516;2023-06-01T00:07:50;24.90;60.80
47813;DHT22;34221;45.296;9.516;2023-06-01T00:08:05;24.90;60.60
47813;DHT22;34221;45.296;9.516;2023-06-01T00:08:20;24.90;60.50
47813;DHT22;34221;45.296;9.516;2023-06-01T00:08:37;24.90;60.40
47813;DHT22;34221;45.296;9.516;2023-06-01T00:08:51;24.90;60.30
47813;DHT22;34221;45.296;9.516;2023-06-01T00:09:06;24.90;60.20
47813;DHT22;34221;45.296;9.516;2023-06-01T00:09:57;24.90;60.30
47813;DHT22;34221;45.296;9.516;2023-06-01T00:10:11;24.90;60.00
47813;DHT22;34221;45.296;9.516;2023-06-01T00:10:26;24.90;60.00
47813;DHT22;34221;45.296;9.516;2023-06-01T00:10:41;24.90;59.90
47813;DHT22;34221;45.296;9.516;2023-06-01T00:10:56;24.90;59.90
47813;DHT22;34221;45.296;9.516;2023-06-01T00:11:10;24.90;59.80
47813;DHT22;34221;45.296;9.516;2023-06-01T00:11:25;24.80;59.60
47813;DHT22;34221;45.296;9.516;2023-06-01T00:11:40;24.90;59.50
47813;DHT22;34221;45.296;9.516;2023-06-01T00:11:55;24.90;59.50
47813;DHT22;34221;45.296;9.516;2023-06-01T00:12:10;24.90;59.50
47813;DHT22;34221;45.296;9.516;2023-06-01T00:12:25;24.90;59.40
47813;DHT22;34221;45.296;9.516;2023-06-01T00:12:39;24.80;59.40
47813;DHT22;34221;45.296;9.516;2023-06-01T00:12:54;24.90;59.50
47813;DHT22;34221;45.296;9.516;2023-06-01T00:13:09;24.80;59.40
47813;DHT22;34221;45.296;9.516;2023-06-01T00:13:24;24.90;59.40
47813;DHT22;34221;45.296;9.516;2023-06-01T00:13:39;24.90;59.40
47813;DHT22;34221;45.296;9.516;2023-06-01T00:13:54;24.80;59.30
47813;DHT22;34221;45.296;9.516;2023-06-01T00:14:08;24.80;59.30
47813;DHT22;34221;45.296;9.516;2023-06-01T00:14:24;24.80;59.30
47813;DHT22;34221;45.296;9.516;2023-06-01T00:14:38;24.80;59.20
47813;DHT22;34221;45.296;9.516;2023-06-01T00:14:54;24.80;59.20
47813;DHT22;34221;45.296;9.516;2023-06-01T00:15:09;24.90;59.20
47813;DHT22;34221;45.296;9.516;2023-06-01T00:15:24;24.80;59.10
47813;DHT22;34221;45.296;9.516;2023-06-01T00:15:39;24.90;59.20
47813;DHT22;34221;45.296;9.516;2023-06-01T00:15:54;24.80;59.10
47813;DHT22;34221;45.296;9.516;2023-06-01T00:16:09;24.80;59.00
47813;DHT22;34221;45.296;9.516;2023-06-01T00:16:25;24.80;59.00
47813;DHT22;34221;45.296;9.516;2023-06-01T00:16:58;24.80;59.10
47813;DHT22;34221;45.296;9.516;2023-06-01T00:17:13;24.80;59.10
47813;DHT22;34221;45.296;9.516;2023-06-01T00:17:28;24.80;59.20
47813;DHT22;34221;45.296;9.516;2023-06-01T00:17:43;24.80;59.20
47813;DHT22;34221;45.296;9.516;2023-06-01T00:17:58;24.90;59.40
47813;DHT22;34221;45.296;9.516;2023-06-01T00:18:15;24.80;59.40
47813;DHT22;34221;45.296;9.516;2023-06-01T00:18:30;24.90;59.40
47813;DHT22;34221;45.296;9.516;2023-06-01T00:18:44;24.90;59.50
47813;DHT22;34221;45.296;9.516;2023-06-01T00:18:59;24.90;59.60
47813;DHT22;34221;45.296;9.516;2023-06-01T00:19:17;24.90;59.70
47813;DHT22;34221;45.296;9.516;2023-06-01T00:19:33;24.90;59.80
47813;DHT22;34221;45.296;9.516;2023-06-01T00:19:49;24.90;59.80
47813;DHT22;34221;45.296;9.516;2023-06-01T00:20:04;24.90;59.90
47813;DHT22;34221;45.296;9.516;2023-06-01T00:20:22;24.90;60.00
47813;DHT22;34221;45.296;9.516;2023-06-01T00:20:39;24.90;60.10
47813;DHT22;34221;45.296;9.516;2023-06-01T00:20:53;24.90;60.10
47813;DHT22;34221;45.296;9.516;2023-06-01T00:21:08;25.00;60.20
47813;DHT22;34221;45.296;9.516;2023-06-01T00:21:24;25.00;60.20
47813;DHT22;34221;45.296;9.516;2023-06-01T00:21:39;24.90;60.20
47813;DHT22;34221;45.296;9.516;2023-06-01T00:21:54;25.00;60.20
47813;DHT22;34221;45.296;9.516;2023-06-01T00:22:09;25.00;60.20
47813;DHT22;34221;45.296;9.516;2023-06-01T00:22:25;25.00;60.30
47813;DHT22;34221;45.296;9.516;2023-06-01T00:22:44;25.00;60.40
47813;DHT22;34221;45.296;9.516;2023-06-01T00:23:00;25.00;60.40
47813;DHT22;34221;45.296;9.516;2023-06-01T00:23:17;25.00;60.50
47813;DHT22;34221;45.296;9.516;2023-06-01T00:23:34;25.10;61.30
47813;DHT22;34221;45.296;9.516;2023-06-01T00:23:49;25.00;60.70
47813;DHT22;34221;45.296;9.516;2023-06-01T00:24:04;25.10;60.80
47813;DHT22;34221;45.296;9.516;2023-06-01T00:24:22;25.10;60.90
47813;DHT22;34221;45.296;9.516;2023-06-01T00:24:37;25.10;61.00
47813;DHT22;34221;45.296;9.516;2023-06-01T00:24:52;25.10;61.10
47813;DHT22;34221;45.296;9.516;2023-06-01T00:25:08;25.00;61.10
47813;DHT22;34221;45.296;9.516;2023-06-01T00:25:23;25.00;61.10
47813;DHT22;34221;45.296;9.516;2023-06-01T00:25:37;25.00;61.20
47813;DHT22;34221;45.296;9.516;2023-06-01T00:25:52;25.00;61.30
47813;DHT22;34221;45.296;9.516;2023-06-01T00:26:08;25.00;61.40
47813;DHT22;34221;45.296;9.516;2023-06-01T00:26:23;25.00;61.40
47813;DHT22;34221;45.296;9.516;2023-06-01T00:26:39;25.00;61.50
47813;DHT22;34221;45.296;9.516;2023-06-01T00:26:54;25.00;61.50
47813;DHT22;34221;45.296;9.516;2023-06-01T00:27:09;25.00;61.60
47813;DHT22;34221;45.296;9.516;2023-06-01T00:27:23;25.00;61.60
47813;DHT22;34221;45.296;9.516;2023-06-01T00:27:38;25.00;61.60
47813;DHT22;34221;45.296;9.516;2023-06-01T00:27:53;25.00;61.70
47813;DHT22;34221;45.296;9.516;2023-06-01T00:28:08;25.00;61.80
47813;DHT22;34221;45.296;9.516;2023-06-01T00:28:23;25.00;61.70
47813;DHT22;34221;45.296;9.516;2023-06-01T00:28:38;25.00;61.80
47813;DHT22;34221;45.296;9.516;2023-06-01T00:28:53;24.90;61.70
47813;DHT22;34221;45.296;9.516;2023-06-01T00:29:07;24.90;61.90
47813;DHT22;34221;45.296;9.516;2023-06-01T00:29:22;25.00;61.90
47813;DHT22;34221;45.296;9.516;2023-06-01T00:29:37;24.90;62.00
47813;DHT22;34221;45.296;9.516;2023-06-01T00:29:52;24.90;62.10
47813;DHT22;34221;45.296;9.516;2023-06-01T00:30:07;24.90;62.20
47813;DHT22;34221;45.296;9.516;2023-06-01T00:30:22;24.90;62.20
47813;DHT22;34221;45.296;9.516;2023-06-01T00:30:37;24.90;62.20
47813;DHT22;34221;45.296;9.516;2023-06-01T00:30:52;24.90;62.20
47813;DHT22;34221;45.296;9.516;2023-06-01T00:31:07;24.90;62.10
47813;DHT22;34221;45.296;9.516;2023-06-01T00:31:22;24.90;62.00
47813;DHT22;34221;45.296;9.516;2023-06-01T00:31:37;24.90;62.70
47813;DHT22;34221;45.296;9.516;2023-06-01T00:31:51;24.90;62.00
47813;DHT22;34221;45.296;9.516;2023-06-01T00:32:08;24.90;62.00
47813;DHT22;34221;45.296;9.516;2023-06-01T00:32:22;24.90;62.00
47813;DHT22;34221;45.296;9.516;2023-06-01T00:32:37;24.90;62.00
47813;DHT22;34221;45.296;9.516;2023-06-01T00:32:52;24.90;61.90
47813;DHT22;34221;45.296;9.516;2023-06-01T00:33:07;24.90;61.90
47813;DHT22;34221;45.296;9.516;2023-06-01T00:33:22;24.90;62.00
47813;DHT22;34221;45.296;9.516;2023-06-01T00:33:37;24.90;62.00
47813;DHT22;34221;45.296;9.516;2023-06-01T00:33:52;24.90;61.90
47813;DHT22;34221;45.296;9.516;2023-06-01T00:34:07;24.90;61.90
47813;DHT22;34221;45.296;9.516;2023-06-01T00:34:22;24.90;62.00
47813;DHT22;34221;45.296;9.516;2023-06-01T00:34:37;24.90;62.00
47813;DHT22;34221;45.296;9.516;2023-06-01T00:34:52;24.90;62.00
47813;DHT22;34221;45.296;9.516;2023-06-01T00:35:07;24.90;62.00
47813;DHT22;34221;45.296;9.516;2023-06-01T00:35:21;24.90;62.00
47813;DHT22;34221;45.296;9.516;2023-06-01T00:35:36;24.90;62.00
47813;DHT22;34221;45.296;9.516;2023-06-01T00:35:51;24.90;62.00
47813;DHT22;34221;45.296;9.516;2023-06-01T00:36:08;24.90;62.10
47813;DHT22;34221;45.296;9.516;2023-06-01T00:36:22;24.90;62.10
47813;DHT22;34221;45.296;9.516;2023-06-01T00:36:37;24.90;62.10
47813;DHT22;34221;45.296;9.516;2023-06-01T00:36:52;24.90;62.10
47813;DHT22;34221;45.296;9.516;2023-06-01T00:37:07;24.90;62.00
47813;DHT22;34221;45.296;9.516;2023-06-01T00:37:22;24.90;62.00
47813;DHT22;34221;45.296;9.516;2023-06-01T00:37:36;24.90;62.00
47813;DHT22;34221;45.296;9.516;2023-06-01T00:37:51;24.90;62.00
47813;DHT22;34221;45.296;9.516;2023-06-01T00:38:06;24.90;61.90
47813;DHT22;34221;45.296;9.516;2023-06-01T00:38:21;24.90;61.90
47813;DHT22;34221;45.296;9.516;2023-06-01T00:38:36;24.90;61.90
47813;DHT22;34221;45.296;9.516;2023-06-01T00:38:51;24.90;61.90
47813;DHT22;34221;45.296;9.516;2023-06-01T00:39:05;24.90;61.90
47813;DHT22;34221;45.296;9.516;2023-06-01T00:39:20;24.90;61.90
47813;DHT22;34221;45.296;9.516;2023-06-01T00:39:35;24.90;62.00
47813;DHT22;34221;45.296;9.516;2023-06-01T00:39:49;24.90;61.90
47813;DHT22;34221;45.296;9.516;2023-06-01T00:40:05;24.90;61.90
47813;DHT22;34221;45.296;9.516;2023-06-01T00:40:20;24.90;62.00
47813;DHT22;34221;45.296;9.516;2023-06-01T00:40:35;24.90;62.00
47813;DHT22;34221;45.296;9.516;2023-06-01T00:40:50;24.80;62.00
47813;DHT22;34221;45.296;9.516;2023-06-01T00:41:05;24.80;62.00
47813;DHT22;34221;45.296;9.516;2023-06-01T00:41:20;24.80;62.00
47813;DHT22;34221;45.296;9.516;2023-06-01T00:41:35;24.90;62.10
47813;DHT22;34221;45.296;9.516;2023-06-01T00:41:50;24.90;62.10
47813;DHT22;34221;45.296;9.516;2023-06-01T00:42:05;24.90;62.10
47813;DHT22;34221;45.296;9.516;2023-06-01T00:42:20;24.90;62.00
47813;DHT22;34221;45.296;9.516;2023-06-01T00:42:34;24.80;62.00
47813;DHT22;34221;45.296;9.516;2023-06-01T00:42:50;24.80;62.00
47813;DHT22;34221;45.296;9.516;2023-06-01T00:43:05;24.80;62.10
47813;DHT22;34221;45.296;9.516;2023-06-01T00:43:20;24.80;62.00
47813;DHT22;34221;45.296;9.516;2023-06-01T00:43:34;24.80;62.10
47813;DHT22;34221;45.296;9.516;2023-06-01T00:43:49;24.80;62.10
47813;DHT22;34221;45.296;9.516;2023-06-01T00:44:04;24.80;62.20
47813;DHT22;34221;45.296;9.516;2023-06-01T00:44:19;24.80;62.20
47813;DHT22;34221;45.296;9.516;2023-06-01T00:44:34;24.80;62.20
47813;DHT22;34221;45.296;9.516;2023-06-01T00:44:48;24.80;62.20
47813;DHT22;34221;45.296;9.516;2023-06-01T00:45:04;24.80;62.20
47813;DHT22;34221;45.296;9.516;2023-06-01T00:45:19;24.80;62.20
47813;DHT22;34221;45.296;9.516;2023-06-01T00:45:34;24.80;62.20
47813;DHT22;34221;45.296;9.516;2023-06-01T00:45:49;24.80;62.20
47813;DHT22;34221;45.296;9.516;2023-06-01T00:46:05;24.80;62.30
47813;DHT22;34221;45.296;9.516;2023-06-01T00:46:20;24.80;62.30
47813;DHT22;34221;45.296;9.516;2023-06-01T00:46:37;24.80;62.20
47813;DHT22;34221;45.296;9.516;2023-06-01T00:46:52;24.80;62.20
47813;DHT22;34221;45.296;9.516;2023-06-01T00:47:07;24.70;62.20
47813;DHT22;34221;45.296;9.516;2023-06-01T00:47:22;24.80;62.20
47813;DHT22;34221;45.296;9.516;2023-06-01T00:47:40;24.70;62.20
47813;DHT22;34221;45.296;9.516;2023-06-01T00:48:01;24.80;62.40
47813;DHT22;34221;45.296;9.516;2023-06-01T00:48:16;24.70;62.50
47813;DHT22;34221;45.296;9.516;2023-06-01T00:48:32;24.70;62.50
47813;DHT22;34221;45.296;9.516;2023-06-01T00:48:47;24.80;62.60
47813;DHT22;34221;45.296;9.516;2023-06-01T00:49:02;24.70;62.60
47813;DHT22;34221;45.296;9.516;2023-06-01T00:49:17;24.70;62.60
47813;DHT22;34221;45.296;9.516;2023-06-01T00:49:32;24.70;62.60
47813;DHT22;34221;45.296;9.516;2023-06-01T00:49:47;24.70;62.60
47813;DHT22;34221;45.296;9.516;2023-06-01T00:50:02;24.70;62.70
47813;DHT22;34221;45.296;9.516;2023-06-01T00:50:17;24.70;62.70
47813;DHT22;34221;45.296;9.516;2023-06-01T00:50:32;24.70;62.70
47813;DHT22;34221;45.296;9.516;2023-06-01T00:50:47;24.70;62.70
47813;DHT22;34221;45.296;9.516;2023-06-01T00:51:02;24.70;62.80
47813;DHT22;34221;45.296;9.516;2023-06-01T00:51:17;24.70;62.90
47813;DHT22;34221;45.296;9.516;2023-06-01T00:51:33;24.60;62.90
47813;DHT22;34221;45.296;9.516;2023-06-01T00:51:48;24.60;62.90
47813;DHT22;34221;45.296;9.516;2023-06-01T00:52:03;24.60;63.00
47813;DHT22;34221;45.296;9.516;2023-06-01T00:52:18;24.60;63.10
47813;DHT22;34221;45.296;9.516;2023-06-01T00:52:33;24.60;63.20
47813;DHT22;34221;45.296;9.516;2023-06-01T00:52:50;24.60;63.20
47813;DHT22;34221;45.296;9.516;2023-06-01T00:53:07;24.50;63.20
47813;DHT22;34221;45.296;9.516;2023-06-01T00:53:22;24.60;63.30
47813;DHT22;34221;45.296;9.516;2023-06-01T00:53:36;24.50;63.20
47813;DHT22;34221;45.296;9.516;2023-06-01T00:53:52;24.60;63.20
47813;DHT22;34221;45.296;9.516;2023-06-01T00:54:07;24.50;63.20
47813;DHT22;34221;45.296;9.516;2023-06-01T00:54:22;24.50;63.10
47813;DHT22;34221;45.296;9.516;2023-06-01T00:54:37;24.50;63.20
47813;DHT22;34221;45.296;9.516;2023-06-01T00:54:52;24.50;63.20
47813;DHT22;34221;45.296;9.516;2023-06-01T00:55:07;24.50;63.30
47813;DHT22;34221;45.296;9.516;2023-06-01T00:55:25;24.50;63.40
47813;DHT22;34221;45.296;9.516;2023-06-01T00:55:41;24.50;63.50
47813;DHT22;34221;45.296;9.516;2023-06-01T00:55:56;24.50;63.60
47813;DHT22;34221;45.296;9.516;2023-06-01T00:56:10;24.40;63.60
47813;DHT22;34221;45.296;9.516;2023-06-01T00:56:28;24.50;63.70
47813;DHT22;34221;45.296;9.516;2023-06-01T00:56:43;24.40;63.60
47813;DHT22;34221;45.296;9.516;2023-06-01T00:56:58;24.40;63.60
47813;DHT22;34221;45.296;9.516;2023-06-01T00:57:14;24.40;63.60
47813;DHT22;34221;45.296;9.516;2023-06-01T00:57:29;24.40;63.60
47813;DHT22;34221;45.296;9.516;2023-06-01T00:57:44;24.40;63.60
47813;DHT22;34221;45.296;9.516;2023-06-01T00:58:00;24.40;63.60
47813;DHT22;34221;45.296;9.516;2023-06-01T00:58:16;24.40;63.90
47813;DHT22;34221;45.296;9.516;2023-06-01T00:58:31;24.40;63.60
47813;DHT22;34221;45.296;9.516;2023-06-01T00:58:45;24.40;63.60
47813;DHT22;34221;45.296;9.516;2023-06-01T00:59:01;24.40;63.50
47813;DHT22;34221;45.296;9.516;2023-06-01T00:59:15;24.40;63.60
47813;DHT22;34221;45.296;9.516;2023-06-01T00:59:30;24.40;63.50
47813;DHT22;34221;45.296;9.516;2023-06-01T00:59:45;24.50;63.50
47813;DHT22;34221;45.296;9.516;2023-06-01T01:00:02;24.50;63.40
47813;DHT22;34221;45.296;9.516;2023-06-01T01:00:27;24.50;63.30
47813;DHT22;34221;45.296;9.516;2023-06-01T01:00:44;24.40;63.30
47813;DHT22;34221;45.296;9.516;2023-06-01T01:01:02;24.40;63.20
47813;DHT22;34221;45.296;9.516;2023-06-01T01:01:17;24.50;63.30
47813;DHT22;34221;45.296;9.516;2023-06-01T01:01:37;24.40;63.30
47813;DHT22;34221;45.296;9.516;2023-06-01T01:01:51;24.50;63.30
47813;DHT22;34221;45.296;9.516;2023-06-01T01:02:06;24.40;63.20
47813;DHT22;34221;45.296;9.516;2023-06-01T01:02:22;24.40;63.20
47813;DHT22;34221;45.296;9.516;2023-06-01T01:02:39;24.50;63.20
47813;DHT22;34221;45.296;9.516;2023-06-01T01:02:54;24.50;63.20
47813;DHT22;34221;45.296;9.516;2023-06-01T01:03:11;24.50;63.20
47813;DHT22;34221;45.296;9.516;2023-06-01T01:03:28;24.40;63.20
47813;DHT22;34221;45.296;9.516;2023-06-01T01:03:47;24.50;63.20
47813;DHT22;34221;45.296;9.516;2023-06-01T01:04:04;24.40;63.10
47813;DHT22;34221;45.296;9.516;2023-06-01T01:04:20;24.40;63.70
47813;DHT22;34221;45.296;9.516;2023-06-01T01:04:40;24.40;63.00
47813;DHT22;34221;45.296;9.516;2023-06-01T01:04:55;24.40;62.90
47813;DHT22;34221;45.296;9.516;2023-06-01T01:05:10;24.40;62.80
47813;DHT22;34221;45.296;9.516;2023-06-01T01:05:25;24.40;62.80
47813;DHT22;34221;45.296;9.516;2023-06-01T01:05:42;24.40;62.80
47813;DHT22;34221;45.296;9.516;2023-06-01T01:06:49;24.40;62.90
47813;DHT22;34221;45.296;9.516;2023-06-01T01:07:17;24.40;62.80
47813;DHT22;34221;45.296;9.516;2023-06-01T01:08:53;24.50;62.90
47813;DHT22;34221;45.296;9.516;2023-06-01T01:09:46;24.50;62.80
47813;DHT22;34221;45.296;9.516;2023-06-01T01:10:33;24.50;62.80
47813;DHT22;34221;45.296;9.516;2023-06-01T01:11:09;24.50;62.80
47813;DHT22;34221;45.296;9.516;2023-06-01T01:11:29;24.50;62.90
47813;DHT22;34221;45.296;9.516;2023-06-01T01:11:52;24.40;62.80
47813;DHT22;34221;45.296;9.516;2023-06-01T01:12:21;24.40;62.80
47813;DHT22;34221;45.296;9.516;2023-06-01T01:13:27;24.40;62.80
47813;DHT22;34221;45.296;9.516;2023-06-01T01:13:52;24.40;62.90
47813;DHT22;34221;45.296;9.516;2023-06-01T01:14:16;24.40;63.10
47813;DHT22;34221;45.296;9.516;2023-06-01T01:14:55;24.40;63.20
47813;DHT22;34221;45.296;9.516;2023-06-01T01:16:11;24.30;63.20
47813;DHT22;34221;45.296;9.516;2023-06-01T01:16:35;24.30;63.20
47813;DHT22;34221;45.296;9.516;2023-06-01T01:17:17;24.30;63.10
47813;DHT22;34221;45.296;9.516;2023-06-01T01:17:40;24.30;63.00
47813;DHT22;34221;45.296;9.516;2023-06-01T01:18:03;24.30;63.10
47813;DHT22;34221;45.296;9.516;2023-06-01T01:18:25;24.20;63.00
47813;DHT22;34221;45.296;9.516;2023-06-01T01:18:57;24.30;63.10
47813;DHT22;34221;45.296;9.516;2023-06-01T01:19:35;24.20;63.10
47813;DHT22;34221;45.296;9.516;2023-06-01T01:20:11;24.20;63.10
47813;DHT22;34221;45.296;9.516;2023-06-01T01:20:33;24.20;63.50
47813;DHT22;34221;45.296;9.516;2023-06-01T01:20:54;24.20;63.60
47813;DHT22;34221;45.296;9.516;2023-06-01T01:21:14;24.20;63.60
47813;DHT22;34221;45.296;9.516;2023-06-01T01:24:49;24.10;64.20
47813;DHT22;34221;45.296;9.516;2023-06-01T01:26:12;24.10;64.40
47813;DHT22;34221;45.296;9.516;2023-06-01T01:27:04;24.00;64.50
47813;DHT22;34221;45.296;9.516;2023-06-01T01:27:39;24.10;64.60
47813;DHT22;34221;45.296;9.516;2023-06-01T01:28:49;24.00;64.70
47813;DHT22;34221;45.296;9.516;2023-06-01T01:29:09;24.00;64.80
47813;DHT22;34221;45.296;9.516;2023-06-01T01:29:26;24.00;64.80
47813;DHT22;34221;45.296;9.516;2023-06-01T01:29:43;24.00;64.80
47813;DHT22;34221;45.296;9.516;2023-06-01T01:30:02;24.00;64.80
47813;DHT22;34221;45.296;9.516;2023-06-01T01:30:22;24.00;64.70
47813;DHT22;34221;45.296;9.516;2023-06-01T01:30:41;24.00;64.70
47813;DHT22;34221;45.296;9.516;2023-06-01T01:30:57;23.90;64.70
47813;DHT22;34221;45.296;9.516;2023-06-01T01:31:16;23.90;64.70
47813;DHT22;34221;45.296;9.516;2023-06-01T01:31:32;23.90;64.70
47813;DHT22;34221;45.296;9.516;2023-06-01T01:31:49;23.90;64.70
47813;DHT22;34221;45.296;9.516;2023-06-01T01:32:05;24.00;64.70
47813;DHT22;34221;45.296;9.516;2023-06-01T01:32:22;23.90;64.70
47813;DHT22;34221;45.296;9.516;2023-06-01T01:32:38;23.90;64.70
47813;DHT22;34221;45.296;9.516;2023-06-01T01:32:55;23.90;64.70
47813;DHT22;34221;45.296;9.516;2023-06-01T01:33:11;23.90;64.70
47813;DHT22;34221;45.296;9.516;2023-06-01T01:33:27;23.90;64.70
47813;DHT22;34221;45.296;9.516;2023-06-01T01:33:45;24.00;64.70
47813;DHT22;34221;45.296;9.516;2023-06-01T01:34:02;23.90;64.60
47813;DHT22;34221;45.296;9.516;2023-06-01T01:34:19;23.90;64.60
47813;DHT22;34221;45.296;9.516;2023-06-01T01:34:35;23.90;64.70
47813;DHT22;34221;45.296;9.516;2023-06-01T01:34:51;23.90;64.70
47813;DHT22;34221;45.296;9.516;2023-06-01T01:35:07;23.90;64.70
47813;DHT22;34221;45.296;9.516;2023-06-01T01:35:26;23.90;64.70
47813;DHT22;34221;45.296;9.516;2023-06-01T01:35:41;23.90;64.80
47813;DHT22;34221;45.296;9.516;2023-06-01T01:35:56;23.90;64.80
47813;DHT22;34221;45.296;9.516;2023-06-01T01:36:12;23.90;64.80
47813;DHT22;34221;45.296;9.516;2023-06-01T01:36:27;23.90;64.80
47813;DHT22;34221;45.296;9.516;2023-06-01T01:36:44;23.90;64.80
47813;DHT22;34221;45.296;9.516;2023-06-01T01:37:01;23.90;64.70
47813;DHT22;34221;45.296;9.516;2023-06-01T01:37:16;23.90;64.70
47813;DHT22;34221;45.296;9.516;2023-06-01T01:37:33;23.90;64.70
47813;DHT22;34221;45.296;9.516;2023-06-01T01:37:52;23.90;64.70
47813;DHT22;34221;45.296;9.516;2023-06-01T01:38:07;23.80;64.60
47813;DHT22;34221;45.296;9.516;2023-06-01T01:38:22;23.90;64.60
47813;DHT22;34221;45.296;9.516;2023-06-01T01:38:37;23.90;64.60
47813;DHT22;34221;45.296;9.516;2023-06-01T01:38:51;23.80;64.50
47813;DHT22;34221;45.296;9.516;2023-06-01T01:39:06;23.80;64.50
47813;DHT22;34221;45.296;9.516;2023-06-01T01:39:21;23.80;64.50
47813;DHT22;34221;45.296;9.516;2023-06-01T01:39:37;23.80;64.50
47813;DHT22;34221;45.296;9.516;2023-06-01T01:39:52;23.80;64.50
47813;DHT22;34221;45.296;9.516;2023-06-01T01:40:07;23.80;64.50
47813;DHT22;34221;45.296;9.516;2023-06-01T01:40:22;23.80;64.60
47813;DHT22;34221;45.296;9.516;2023-06-01T01:40:37;23.70;64.50
47813;DHT22;34221;45.296;9.516;2023-06-01T01:40:52;23.70;64.60
47813;DHT22;34221;45.296;9.516;2023-06-01T01:41:07;23.80;64.50
47813;DHT22;34221;45.296;9.516;2023-06-01T01:41:22;23.80;64.50
47813;DHT22;34221;45.296;9.516;2023-06-01T01:41:36;23.70;64.50
47813;DHT22;34221;45.296;9.516;2023-06-01T01:41:51;23.70;64.50
47813;DHT22;34221;45.296;9.516;2023-06-01T01:42:06;23.80;64.60
47813;DHT22;34221;45.296;9.516;2023-06-01T01:42:21;23.70;64.50
47813;DHT22;34221;45.296;9.516;2023-06-01T01:42:36;23.70;64.50
47813;DHT22;34221;45.296;9.516;2023-06-01T01:42:51;23.70;64.50
47813;DHT22;34221;45.296;9.516;2023-06-01T01:43:07;23.70;64.50
47813;DHT22;34221;45.296;9.516;2023-06-01T01:43:23;23.80;64.50
47813;DHT22;34221;45.296;9.516;2023-06-01T01:43:39;23.80;64.50
47813;DHT22;34221;45.296;9.516;2023-06-01T01:43:56;23.80;64.40
47813;DHT22;34221;45.296;9.516;2023-06-01T01:44:14;23.80;64.30
47813;DHT22;34221;45.296;9.516;2023-06-01T01:44:29;23.80;64.30
47813;DHT22;34221;45.296;9.516;2023-06-01T01:44:45;23.70;64.20
47813;DHT22;34221;45.296;9.516;2023-06-01T01:45:00;23.70;64.30
47813;DHT22;34221;45.296;9.516;2023-06-01T01:45:16;23.70;64.40
47813;DHT22;34221;45.296;9.516;2023-06-01T01:45:31;23.80;64.40
47813;DHT22;34221;45.296;9.516;2023-06-01T01:45:50;23.70;64.40
47813;DHT22;34221;45.296;9.516;2023-06-01T01:46:25;23.70;64.40
47813;DHT22;34221;45.296;9.516;2023-06-01T01:46:57;23.70;64.40
47813;DHT22;34221;45.296;9.516;2023-06-01T01:47:31;23.70;64.30
47813;DHT22;34221;45.296;9.516;2023-06-01T01:48:48;23.70;64.50
47813;DHT22;34221;45.296;9.516;2023-06-01T01:49:14;23.70;64.50
47813;DHT22;34221;45.296;9.516;2023-06-01T01:49:42;23.70;64.60
47813;DHT22;34221;45.296;9.516;2023-06-01T01:50:06;23.70;64.60
47813;DHT22;34221;45.296;9.516;2023-06-01T01:50:28;23.70;64.60
47813;DHT22;34221;45.296;9.516;2023-06-01T01:50:53;23.70;64.60
47813;DHT22;34221;45.296;9.516;2023-06-01T01:51:17;23.70;64.60
47813;DHT22;34221;45.296;9.516;2023-06-01T01:51:47;23.70;64.70
47813;DHT22;34221;45.296;9.516;2023-06-01T01:52:30;23.70;64.70
47813;DHT22;34221;45.296;9.516;2023-06-01T01:52:48;23.70;64.70
47813;DHT22;34221;45.296;9.516;2023-06-01T01:53:05;23.70;64.80
47813;DHT22;34221;45.296;9.516;2023-06-01T01:53:22;23.70;64.90
47813;DHT22;34221;45.296;9.516;2023-06-01T01:53:39;23.70;65.00
47813;DHT22;34221;45.296;9.516;2023-06-01T01:53:55;23.70;65.10
47813;DHT22;34221;45.296;9.516;2023-06-01T01:54:10;23.70;65.10
47813;DHT22;34221;45.296;9.516;2023-06-01T01:54:27;23.70;65.20
47813;DHT22;34221;45.296;9.516;2023-06-01T01:54:44;23.70;65.20
47813;DHT22;34221;45.296;9.516;2023-06-01T01:55:01;23.70;65.30
47813;DHT22;34221;45.296;9.516;2023-06-01T01:55:16;23.70;65.30
47813;DHT22;34221;45.296;9.516;2023-06-01T01:55:34;23.70;65.30
47813;DHT22;34221;45.296;9.516;2023-06-01T01:55:50;23.70;65.40
47813;DHT22;34221;45.296;9.516;2023-06-01T01:56:07;23.70;65.40
47813;DHT22;34221;45.296;9.516;2023-06-01T01:56:23;23.60;65.40
47813;DHT22;34221;45.296;9.516;2023-06-01T01:56:41;23.60;65.40
47813;DHT22;34221;45.296;9.516;2023-06-01T01:56:58;23.60;65.40
47813;DHT22;34221;45.296;9.516;2023-06-01T01:57:15;23.70;65.50
47813;DHT22;34221;45.296;9.516;2023-06-01T01:57:30;23.60;65.50
47813;DHT22;34221;45.296;9.516;2023-06-01T01:57:48;23.60;65.40
47813;DHT22;34221;45.296;9.516;2023-06-01T01:58:04;23.70;65.50
47813;DHT22;34221;45.296;9.516;2023-06-01T01:58:19;23.60;65.40